createdAt,value
2019-01-24T00:01:20.141Z,99.90
2019-01-24T00:03:48.498Z,99.90
2019-01-24T00:06:18.461Z,99.90
2019-01-24T00:08:46.814Z,99.90
2019-01-24T00:11:15.129Z,99.90
2019-01-24T00:13:48.044Z,99.90
2019-01-24T00:16:20.899Z,99.90
2019-01-24T00:18:49.237Z,99.90
2019-01-24T00:21:19.149Z,99.90
2019-01-24T00:23:47.473Z,99.90
2019-01-24T00:26:15.895Z,99.90
2019-01-24T00:28:44.179Z,99.90
2019-01-24T00:31:15.547Z,99.90
2019-01-24T00:33:44.145Z,99.90
2019-01-24T00:36:27.347Z,99.90
2019-01-24T00:38:56.854Z,99.90
2019-01-24T00:41:27.825Z,99.90
2019-01-24T00:43:57.797Z,99.90
2019-01-24T00:46:28.141Z,99.90
2019-01-24T00:48:56.486Z,99.90
2019-01-24T00:51:24.777Z,99.90
2019-01-24T00:53:53.240Z,99.90
2019-01-24T00:56:21.555Z,99.90
2019-01-24T00:58:50.013Z,99.90
2019-01-24T01:01:18.316Z,99.90
2019-01-24T01:03:47.068Z,99.90
2019-01-24T01:06:15.412Z,99.90
2019-01-24T01:08:43.816Z,99.90
2019-01-24T01:11:12.114Z,99.90
2019-01-24T01:13:40.631Z,99.90
2019-01-24T01:16:09.489Z,99.90
2019-01-24T01:18:39.435Z,99.90
2019-01-24T01:21:07.768Z,99.90
2019-01-24T01:23:37.906Z,99.90
2019-01-24T01:26:07.454Z,99.90
2019-01-24T01:28:40.478Z,99.90
2019-01-24T01:31:11.538Z,99.90
2019-01-24T01:33:42.566Z,99.90
2019-01-24T01:36:15.437Z,99.90
2019-01-24T01:38:43.820Z,99.90
2019-01-24T01:41:12.120Z,99.90
2019-01-24T01:43:40.403Z,99.90
2019-01-24T01:46:08.938Z,99.90
2019-01-24T01:48:37.238Z,99.90
2019-01-24T01:51:05.560Z,99.90
2019-01-24T01:53:36.874Z,99.90
2019-01-24T01:56:10.065Z,99.90
2019-01-24T01:58:38.349Z,99.90
2019-01-24T02:01:07.844Z,99.70
2019-01-24T02:03:36.140Z,99.60
2019-01-24T02:06:04.491Z,99.90
2019-01-24T02:08:34.455Z,99.80
2019-01-24T02:11:02.759Z,99.80
2019-01-24T02:13:31.046Z,99.50
2019-01-24T02:15:59.354Z,99.60
2019-01-24T02:18:29.066Z,99.10
2019-01-24T02:20:57.350Z,99.90
2019-01-24T02:23:25.682Z,99.50
2019-01-24T02:25:53.956Z,99.50
2019-01-24T02:28:22.303Z,99.10
2019-01-24T02:30:52.237Z,99.10
2019-01-24T02:33:20.659Z,99.10
2019-01-24T02:35:48.969Z,99.30
2019-01-24T02:38:18.325Z,99.90
2019-01-24T02:40:46.703Z,99.70
2019-01-24T02:43:17.950Z,99.70
2019-01-24T02:45:48.971Z,99.90
2019-01-24T02:48:20.915Z,99.90
2019-01-24T02:50:53.533Z,99.90
2019-01-24T02:53:21.811Z,99.90
2019-01-24T02:55:50.142Z,99.90
2019-01-24T02:58:18.551Z,99.90
2019-01-24T03:00:46.871Z,99.90
2019-01-24T03:03:15.363Z,99.90
2019-01-24T03:05:43.723Z,99.90
2019-01-24T03:08:12.069Z,99.90
2019-01-24T03:10:40.368Z,99.90
2019-01-24T03:13:09.117Z,99.90
2019-01-24T03:15:37.505Z,99.90
2019-01-24T03:18:05.960Z,99.90
2019-01-24T03:20:34.268Z,99.70
2019-01-24T03:23:02.638Z,99.00
2019-01-24T03:25:35.371Z,99.30
2019-01-24T03:28:05.181Z,99.60
2019-01-24T03:30:33.532Z,99.00
2019-01-24T03:33:04.535Z,99.50
2019-01-24T03:35:35.271Z,99.80
2019-01-24T03:38:03.598Z,99.90
2019-01-24T03:40:31.892Z,99.40
2019-01-24T03:43:00.237Z,99.90
2019-01-24T03:45:33.289Z,99.90
2019-01-24T03:48:01.568Z,99.80
2019-01-24T03:50:32.178Z,99.80
2019-01-24T03:53:00.683Z,99.60
2019-01-24T03:55:30.593Z,99.70
2019-01-24T03:58:00.133Z,99.90
2019-01-24T04:00:29.832Z,99.70
2019-01-24T04:02:59.160Z,99.60
2019-01-24T04:05:27.449Z,99.60
2019-01-24T04:07:56.312Z,99.90
2019-01-24T04:10:25.695Z,99.80
2019-01-24T04:12:54.182Z,99.90
2019-01-24T04:15:24.538Z,99.80
2019-01-24T04:17:52.816Z,99.90
2019-01-24T04:20:21.164Z,99.90
2019-01-24T04:22:49.519Z,99.90
2019-01-24T04:25:18.246Z,99.90
2019-01-24T04:27:46.527Z,99.90
2019-01-24T04:30:19.543Z,99.90
2019-01-24T04:32:47.926Z,99.70
2019-01-24T04:35:23.057Z,99.70
2019-01-24T04:37:51.184Z,99.80
2019-01-24T04:40:21.021Z,99.90
2019-01-24T04:42:53.463Z,99.70
2019-01-24T04:45:21.853Z,99.90
2019-01-24T04:47:50.153Z,99.90
2019-01-24T04:50:19.091Z,99.90
2019-01-24T04:52:47.572Z,99.90
2019-01-24T04:55:19.251Z,99.90
2019-01-24T04:57:47.691Z,99.90
2019-01-24T05:00:24.958Z,99.90
2019-01-24T05:02:53.324Z,99.90
2019-01-24T05:05:27.695Z,99.90
2019-01-24T05:07:51.753Z,99.80
2019-01-24T05:10:20.110Z,99.10
2019-01-24T05:12:49.331Z,99.90
2019-01-24T05:15:17.832Z,99.90
2019-01-24T05:17:46.145Z,99.90
2019-01-24T05:20:14.471Z,99.80
2019-01-24T05:22:42.873Z,99.90
2019-01-24T05:25:13.311Z,99.70
2019-01-24T05:27:41.675Z,99.70
2019-01-24T05:30:15.751Z,99.90
2019-01-24T05:32:44.059Z,99.90
2019-01-24T05:35:12.445Z,99.70
2019-01-24T05:37:41.109Z,99.90
2019-01-24T05:40:09.835Z,99.80
2019-01-24T05:42:38.125Z,99.40
2019-01-24T05:45:09.429Z,99.40
2019-01-24T05:47:38.993Z,99.10
2019-01-24T05:50:11.375Z,99.80
2019-01-24T05:52:42.806Z,99.90
2019-01-24T05:55:12.559Z,99.80
2019-01-24T05:57:40.883Z,99.80
2019-01-24T06:00:14.379Z,99.80
2019-01-24T06:02:42.659Z,99.90
2019-01-24T06:05:11.953Z,98.90
2019-01-24T06:07:40.304Z,99.00
2019-01-24T06:10:13.838Z,99.00
2019-01-24T06:12:43.663Z,98.60
2019-01-24T06:15:16.458Z,99.10
2019-01-24T06:17:44.756Z,99.80
2019-01-24T06:20:13.567Z,99.50
2019-01-24T06:22:41.980Z,99.10
2019-01-24T06:25:31.340Z,99.40
2019-01-24T06:28:02.412Z,99.60
2019-01-24T06:30:30.866Z,99.00
2019-01-24T06:32:59.177Z,99.50
2019-01-24T06:35:28.731Z,99.50
2019-01-24T06:37:57.094Z,99.60
2019-01-24T06:40:28.764Z,99.20
2019-01-24T06:42:57.321Z,99.60
2019-01-24T06:45:25.689Z,99.40
2019-01-24T06:47:54.188Z,99.30
2019-01-24T06:50:23.066Z,99.00
2019-01-24T06:52:52.351Z,99.00
2019-01-24T06:55:25.816Z,99.00
2019-01-24T06:57:54.889Z,99.00
2019-01-24T07:00:23.196Z,99.00
2019-01-24T07:02:51.714Z,99.50
2019-01-24T07:05:20.062Z,99.00
2019-01-24T07:07:48.332Z,99.00
2019-01-24T07:10:21.628Z,99.00
2019-01-24T07:12:56.001Z,99.00
2019-01-24T07:15:25.492Z,99.00
2019-01-24T07:17:56.234Z,99.00
2019-01-24T07:20:24.517Z,99.00
2019-01-24T07:22:52.900Z,99.00
2019-01-24T07:25:23.509Z,99.00
2019-01-24T07:27:54.765Z,99.00
2019-01-24T07:30:23.133Z,99.00
2019-01-24T07:32:51.646Z,99.00
2019-01-24T07:35:21.002Z,99.00
2019-01-24T07:37:49.286Z,98.90
2019-01-24T07:40:23.841Z,98.90
2019-01-24T07:42:52.166Z,98.90
2019-01-24T07:45:32.513Z,99.00
2019-01-24T07:48:02.421Z,98.90
2019-01-24T07:50:33.609Z,99.00
2019-01-24T07:53:01.992Z,99.00
2019-01-24T07:55:31.522Z,99.00
2019-01-24T07:57:59.806Z,99.00
2019-01-24T08:00:32.986Z,99.00
2019-01-24T08:03:01.276Z,99.00
2019-01-24T08:05:30.694Z,99.00
2019-01-24T08:07:59.021Z,99.00
2019-01-24T08:10:31.644Z,99.00
2019-01-24T08:13:00.021Z,99.10
2019-01-24T08:15:29.690Z,99.10
2019-01-24T08:17:57.982Z,99.10
2019-01-24T08:20:27.638Z,99.10
2019-01-24T08:22:57.321Z,99.10
2019-01-24T08:25:25.590Z,99.10
2019-01-24T08:27:53.880Z,99.10
2019-01-24T08:30:24.442Z,99.10
2019-01-24T08:32:52.980Z,99.00
2019-01-24T08:35:21.240Z,99.00
2019-01-24T08:37:49.561Z,99.10
2019-01-24T08:40:24.787Z,99.10
2019-01-24T08:42:56.073Z,99.00
2019-01-24T08:45:24.518Z,99.00
2019-01-24T08:47:53.452Z,99.00
2019-01-24T08:50:24.334Z,99.10
2019-01-24T08:52:55.799Z,99.00
2019-01-24T08:55:49.379Z,99.00
2019-01-24T08:58:18.962Z,99.10
2019-01-24T09:00:47.254Z,99.10
2019-01-24T09:03:17.983Z,98.80
2019-01-24T09:05:46.367Z,98.30
2019-01-24T09:08:15.777Z,98.40
2019-01-24T09:10:44.105Z,98.50
2019-01-24T09:13:12.496Z,98.40
2019-01-24T09:15:43.155Z,98.20
2019-01-24T09:18:12.912Z,98.10
2019-01-24T09:20:41.235Z,98.30
2019-01-24T09:23:09.509Z,98.20
2019-01-24T09:25:37.799Z,99.10
2019-01-24T09:28:14.833Z,99.10
2019-01-24T09:30:42.357Z,99.10
2019-01-24T09:33:10.787Z,99.10
2019-01-24T09:35:39.394Z,99.10
2019-01-24T09:38:08.341Z,99.20
2019-01-24T09:40:36.703Z,99.10
2019-01-24T09:43:05.016Z,99.10
2019-01-24T09:45:36.281Z,99.10
2019-01-24T09:48:05.122Z,98.20
2019-01-24T09:50:33.495Z,97.90
2019-01-24T09:53:01.852Z,97.60
2019-01-24T09:55:30.133Z,97.20
2019-01-24T09:57:58.481Z,97.00
2019-01-24T10:00:36.127Z,97.30
2019-01-24T10:03:04.865Z,97.90
2019-01-24T10:05:33.219Z,97.90
2019-01-24T10:08:04.557Z,97.50
2019-01-24T10:10:38.070Z,97.30
2019-01-24T10:13:06.372Z,97.20
2019-01-24T10:15:34.656Z,97.40
2019-01-24T10:18:06.004Z,97.30
2019-01-24T10:20:34.331Z,96.80
2019-01-24T10:23:03.211Z,96.80
2019-01-24T10:25:35.851Z,96.30
2019-01-24T10:28:23.639Z,96.80
2019-01-24T10:30:52.003Z,96.90
2019-01-24T10:33:20.411Z,96.90
2019-01-24T10:35:49.189Z,97.10
2019-01-24T10:38:19.107Z,96.80
2019-01-24T10:40:47.400Z,96.90
2019-01-24T10:43:18.180Z,96.70
2019-01-24T10:45:49.186Z,96.90
2019-01-24T10:48:19.735Z,96.90
2019-01-24T10:50:48.055Z,96.90
2019-01-24T10:53:16.412Z,96.60
2019-01-24T10:55:48.977Z,96.50
2019-01-24T10:58:17.316Z,96.10
2019-01-24T11:00:48.983Z,96.70
2019-01-24T11:03:20.622Z,96.10
2019-01-24T11:05:51.850Z,95.80
2019-01-24T11:08:22.935Z,96.10
2019-01-24T11:10:51.230Z,95.80
2019-01-24T11:13:22.602Z,96.00
2019-01-24T11:15:50.889Z,96.30
2019-01-24T11:18:19.334Z,96.50
2019-01-24T11:20:48.094Z,96.20
2019-01-24T11:23:18.209Z,96.30
2019-01-24T11:25:46.484Z,95.80
2019-01-24T11:28:16.102Z,96.10
2019-01-24T11:30:44.406Z,96.00
2019-01-24T11:33:15.556Z,95.90
2019-01-24T11:35:44.012Z,95.80
2019-01-24T11:38:15.266Z,96.00
2019-01-24T11:40:43.550Z,95.10
2019-01-24T11:43:13.372Z,95.20
2019-01-24T11:45:42.839Z,95.70
2019-01-24T11:48:11.140Z,95.50
2019-01-24T11:50:39.541Z,95.40
2019-01-24T11:53:07.880Z,95.50
2019-01-24T11:55:36.163Z,95.40
2019-01-24T11:58:04.885Z,95.80
2019-01-24T12:00:37.572Z,95.50
2019-01-24T12:03:06.532Z,95.60
2019-01-24T12:05:34.898Z,95.90
2019-01-24T12:08:05.033Z,95.60
2019-01-24T12:10:38.137Z,95.60
2019-01-24T12:13:09.967Z,95.80
2019-01-24T12:15:39.859Z,95.50
2019-01-24T12:18:09.758Z,95.70
2019-01-24T12:20:39.561Z,95.80
2019-01-24T12:23:09.515Z,95.90
2019-01-24T12:25:39.353Z,95.80
2019-01-24T12:28:07.739Z,96.20
2019-01-24T12:30:37.199Z,96.00
2019-01-24T12:33:05.813Z,95.90
2019-01-24T12:35:34.154Z,96.00
2019-01-24T12:38:02.423Z,96.50
2019-01-24T12:40:30.733Z,96.10
2019-01-24T12:42:59.054Z,95.90
2019-01-24T12:45:36.379Z,96.20
2019-01-24T12:48:24.130Z,96.20
2019-01-24T12:50:52.479Z,96.10
2019-01-24T12:53:22.175Z,96.00
2019-01-24T12:55:52.286Z,95.80
2019-01-24T12:58:20.632Z,96.20
2019-01-24T13:00:48.994Z,96.30
2019-01-24T13:03:20.761Z,96.60
2019-01-24T13:05:49.125Z,96.10
2019-01-24T13:08:18.673Z,96.10
2019-01-24T13:10:46.981Z,96.10
2019-01-24T13:13:18.489Z,96.10
2019-01-24T13:15:46.774Z,96.30
2019-01-24T13:18:15.186Z,96.40
2019-01-24T13:20:43.481Z,96.80
2019-01-24T13:23:15.035Z,96.40
2019-01-24T13:25:43.349Z,96.80
2019-01-24T13:28:11.664Z,96.80
2019-01-24T13:30:39.968Z,97.00
2019-01-24T13:33:09.189Z,97.00
2019-01-24T13:35:38.305Z,97.10
2019-01-24T13:38:06.745Z,97.00
2019-01-24T13:40:35.117Z,97.40
2019-01-24T13:43:03.404Z,97.10
2019-01-24T13:45:34.119Z,96.80
2019-01-24T13:48:05.390Z,96.80
2019-01-24T13:50:33.666Z,97.10
2019-01-24T13:53:01.942Z,97.10
2019-01-24T13:55:30.260Z,97.10
2019-01-24T13:57:58.550Z,97.10
2019-01-24T14:00:52.935Z,97.10
2019-01-24T14:03:25.537Z,97.00
2019-01-24T14:05:54.803Z,97.00
2019-01-24T14:08:23.279Z,97.20
2019-01-24T14:10:51.608Z,97.20
2019-01-24T14:13:24.393Z,97.30
2019-01-24T14:15:52.729Z,96.70
2019-01-24T14:18:21.078Z,97.00
2019-01-24T14:20:50.687Z,97.00
2019-01-24T14:23:19.100Z,97.20
2019-01-24T14:25:47.378Z,97.10
2019-01-24T14:28:16.008Z,97.20
2019-01-24T14:30:44.345Z,96.90
2019-01-24T14:33:12.786Z,96.90
2019-01-24T14:35:42.101Z,97.00
2019-01-24T14:38:10.679Z,97.10
2019-01-24T14:40:39.092Z,97.50
2019-01-24T14:43:07.529Z,97.40
2019-01-24T14:45:36.877Z,97.50
2019-01-24T14:48:06.840Z,97.00
2019-01-24T14:50:35.152Z,97.60
2019-01-24T14:53:04.780Z,97.50
2019-01-24T14:55:33.096Z,97.40
2019-01-24T14:58:01.396Z,96.80
2019-01-24T15:00:35.239Z,97.00
2019-01-24T15:03:03.544Z,96.80
2019-01-24T15:05:33.534Z,96.60
2019-01-24T15:08:01.802Z,97.00
2019-01-24T15:10:32.468Z,96.80
2019-01-24T15:13:00.980Z,97.00
2019-01-24T15:15:29.347Z,97.00
2019-01-24T15:17:57.678Z,97.00
2019-01-24T15:20:25.970Z,97.50
2019-01-24T15:22:54.485Z,97.30
2019-01-24T15:25:24.463Z,97.40
2019-01-24T15:27:52.811Z,97.30
2019-01-24T15:30:26.053Z,97.70
2019-01-24T15:32:54.477Z,97.40
2019-01-24T15:35:22.795Z,97.30
2019-01-24T15:37:54.630Z,97.50
2019-01-24T15:40:27.100Z,97.10
2019-01-24T15:42:57.724Z,97.40
2019-01-24T15:45:26.033Z,97.00
2019-01-24T15:47:54.341Z,97.40
2019-01-24T15:50:23.456Z,97.20
2019-01-24T15:52:52.148Z,97.50
2019-01-24T15:55:20.551Z,97.50
2019-01-24T15:57:49.013Z,97.30
2019-01-24T16:00:20.154Z,97.40
2019-01-24T16:02:48.493Z,97.80
2019-01-24T16:05:17.601Z,97.50
2019-01-24T16:07:45.973Z,97.70
2019-01-24T16:10:16.603Z,97.70
2019-01-24T16:12:46.293Z,97.90
2019-01-24T16:15:17.393Z,98.20
2019-01-24T16:17:48.422Z,97.80
2019-01-24T16:20:21.895Z,97.90
2019-01-24T16:22:53.957Z,97.80
2019-01-24T16:25:24.970Z,97.90
2019-01-24T16:27:54.774Z,97.70
2019-01-24T16:30:39.482Z,97.50
2019-01-24T16:33:10.431Z,97.40
2019-01-24T16:35:40.051Z,97.60
2019-01-24T16:38:09.656Z,97.90
2019-01-24T16:40:43.719Z,98.40
2019-01-24T16:43:13.713Z,98.30
2019-01-24T16:45:43.117Z,98.80
2019-01-24T16:48:13.029Z,98.90
2019-01-24T16:50:41.314Z,98.50
2019-01-24T16:53:10.801Z,99.30
2019-01-24T16:55:40.833Z,98.40
2019-01-24T16:58:12.330Z,98.20
2019-01-24T17:00:47.843Z,98.20
2019-01-24T17:03:17.056Z,98.40
2019-01-24T17:05:45.697Z,98.70
2019-01-24T17:08:16.698Z,98.20
2019-01-24T17:10:45.206Z,99.20
2019-01-24T17:13:18.731Z,98.50
2019-01-24T17:15:50.782Z,98.50
2019-01-24T17:18:19.128Z,98.80
2019-01-24T17:20:47.482Z,99.20
2019-01-24T17:23:15.769Z,99.30
2019-01-24T17:25:44.102Z,99.10
2019-01-24T17:28:13.581Z,99.30
2019-01-24T17:30:41.886Z,99.20
2019-01-24T17:33:10.196Z,98.40
2019-01-24T17:35:38.666Z,98.20
2019-01-24T17:38:07.040Z,98.10
2019-01-24T17:40:36.067Z,99.20
2019-01-24T17:43:06.132Z,99.20
2019-01-24T17:45:34.634Z,99.10
2019-01-24T17:48:03.103Z,99.10
2019-01-24T17:50:33.018Z,99.20
2019-01-24T17:53:01.361Z,99.20
2019-01-24T17:55:34.178Z,99.20
2019-01-24T17:58:02.736Z,99.20
2019-01-24T18:00:32.792Z,99.20
2019-01-24T18:03:02.613Z,98.60
2019-01-24T18:05:33.108Z,99.20
2019-01-24T18:08:01.412Z,99.00
2019-01-24T18:10:33.134Z,98.80
2019-01-24T18:13:01.619Z,99.10
2019-01-24T18:15:32.837Z,99.10
2019-01-24T18:18:01.506Z,99.10
2019-01-24T18:20:37.570Z,99.10
2019-01-24T18:23:08.507Z,99.10
2019-01-24T18:25:40.428Z,99.10
2019-01-24T18:28:13.832Z,99.10
2019-01-24T18:30:44.704Z,99.10
2019-01-24T18:33:19.624Z,99.20
2019-01-24T18:35:48.400Z,99.20
2019-01-24T18:38:20.218Z,99.20
2019-01-24T18:40:48.546Z,99.20
2019-01-24T18:43:18.304Z,99.20
2019-01-24T18:45:49.707Z,99.20
2019-01-24T18:48:18.032Z,99.20
2019-01-24T18:50:46.480Z,99.20
2019-01-24T18:53:14.977Z,99.20
2019-01-24T18:55:43.395Z,99.30
2019-01-24T18:58:11.967Z,99.20
2019-01-24T19:00:42.067Z,99.20
2019-01-24T19:03:10.845Z,99.20
2019-01-24T19:05:39.176Z,99.20
2019-01-24T19:08:08.664Z,99.20
2019-01-24T19:10:37.022Z,99.20
2019-01-24T19:13:09.928Z,99.30
2019-01-24T19:15:38.424Z,99.20
2019-01-24T19:18:09.857Z,99.20
2019-01-24T19:20:38.151Z,99.20
2019-01-24T19:23:07.922Z,99.20
2019-01-24T19:25:36.378Z,99.20
2019-01-24T19:28:06.809Z,99.20
2019-01-24T19:30:35.701Z,99.20
2019-01-24T19:33:06.741Z,99.20
2019-01-24T19:35:35.230Z,99.20
2019-01-24T19:38:04.223Z,99.20
2019-01-24T19:40:33.495Z,99.20
2019-01-24T19:43:04.773Z,99.20
2019-01-24T19:45:35.176Z,99.20
2019-01-24T19:48:03.593Z,99.10
2019-01-24T19:50:32.252Z,99.10
2019-01-24T19:53:01.790Z,99.20
2019-01-24T19:55:31.784Z,99.60
2019-01-24T19:58:00.215Z,99.20
2019-01-24T20:00:31.969Z,99.20
2019-01-24T20:03:00.535Z,99.20
2019-01-24T20:05:29.142Z,99.20
2019-01-24T20:07:57.619Z,99.20
2019-01-24T20:10:30.437Z,99.10
2019-01-24T20:12:58.772Z,99.10
2019-01-24T20:15:31.074Z,99.10
2019-01-24T20:17:59.928Z,99.10
2019-01-24T20:20:28.989Z,99.20
2019-01-24T20:22:57.502Z,99.10
2019-01-24T20:25:31.288Z,99.10
2019-01-24T20:27:59.953Z,99.20
2019-01-24T20:30:30.202Z,99.10
2019-01-24T20:32:59.820Z,99.20
2019-01-24T20:35:34.248Z,99.20
2019-01-24T20:38:03.842Z,99.20
2019-01-24T20:40:35.272Z,99.20
2019-01-24T20:43:03.986Z,99.20
2019-01-24T20:45:32.370Z,99.10
2019-01-24T20:48:01.775Z,99.20
2019-01-24T20:50:30.177Z,99.20
2019-01-24T20:52:58.602Z,99.60
2019-01-24T20:55:26.994Z,99.20
2019-01-24T20:57:55.382Z,99.20
2019-01-24T21:00:24.635Z,99.20
2019-01-24T21:02:54.565Z,99.20
2019-01-24T21:05:24.817Z,99.20
2019-01-24T21:07:53.222Z,99.20
2019-01-24T21:10:29.236Z,99.20
2019-01-24T21:13:04.477Z,99.20
2019-01-24T21:15:33.104Z,99.20
2019-01-24T21:18:01.501Z,99.20
2019-01-24T21:20:32.322Z,99.30
2019-01-24T21:23:03.223Z,99.20
2019-01-24T21:25:32.742Z,99.20
2019-01-24T21:28:01.160Z,99.20
2019-01-24T21:30:35.335Z,99.20
2019-01-24T21:33:05.667Z,99.20
2019-01-24T21:35:34.009Z,99.20
2019-01-24T21:38:03.634Z,99.20
2019-01-24T21:40:36.162Z,99.20
2019-01-24T21:43:04.651Z,99.20
2019-01-24T21:45:35.873Z,99.20
2019-01-24T21:48:04.821Z,99.20
2019-01-24T21:50:33.620Z,99.20
2019-01-24T21:53:02.047Z,99.20
2019-01-24T21:55:31.680Z,99.20
2019-01-24T21:58:00.099Z,99.20
2019-01-24T22:00:30.199Z,99.20
2019-01-24T22:03:01.428Z,99.20
2019-01-24T22:05:29.805Z,99.20
2019-01-24T22:07:59.821Z,99.20
2019-01-24T22:10:31.073Z,99.20
2019-01-24T22:12:59.671Z,99.20
2019-01-24T22:15:31.305Z,99.20
2019-01-24T22:18:01.649Z,99.20
2019-01-24T22:20:30.013Z,99.20
2019-01-24T22:23:00.669Z,99.20
2019-01-24T22:25:50.146Z,99.20
2019-01-24T22:28:21.366Z,99.20
2019-01-24T22:30:50.044Z,99.20
2019-01-24T22:33:19.040Z,99.20
2019-01-24T22:35:47.424Z,99.20
2019-01-24T22:38:18.471Z,99.20
2019-01-24T22:40:46.884Z,99.20
2019-01-24T22:43:15.432Z,99.20
2019-01-24T22:45:43.826Z,99.70
2019-01-24T22:48:12.232Z,99.20
2019-01-24T22:50:40.616Z,99.20
2019-01-24T22:53:12.672Z,99.20
2019-01-24T22:55:41.058Z,99.20
2019-01-24T22:58:09.440Z,99.20
2019-01-24T23:00:48.156Z,99.20
2019-01-24T23:03:19.902Z,99.20
2019-01-24T23:05:48.620Z,99.20
2019-01-24T23:08:17.038Z,99.20
2019-01-24T23:10:45.465Z,99.20
2019-01-24T23:13:13.866Z,99.20
2019-01-24T23:15:42.351Z,99.50
2019-01-24T23:18:10.926Z,99.20
2019-01-24T23:20:40.496Z,99.20
2019-01-24T23:23:10.448Z,99.20
2019-01-24T23:25:38.871Z,99.20
2019-01-24T23:28:11.556Z,99.20
2019-01-24T23:33:54.446Z,99.20
2019-01-24T23:36:22.958Z,99.20
2019-01-24T23:38:51.350Z,99.20
2019-01-24T23:41:21.990Z,99.20
2019-01-24T23:43:50.579Z,99.20
2019-01-24T23:46:21.683Z,99.20
2019-01-24T23:48:50.180Z,99.20
2019-01-24T23:51:20.042Z,99.20
2019-01-24T23:53:48.405Z,99.20
2019-01-24T23:56:16.813Z,99.20
2019-01-24T23:58:45.202Z,99.20
